Portland, Oregon
Traffic Map
Current Weather Conditions
Portland, Oregon
Broken Clouds
Broken Clouds
59°
Feels Like: 59°
Wind Chill: 59° Ceiling: 7500
Heat Index: 59° Visibility: 10mi
Dew Point: 48° Wind: 5mph
Humidity: 67% Direction: 330° (NNW)
Pressure: 30.16in Gusts: 0mph
Raw Report DataKPDX 300053Z 33004KT 10SM FEW044 FEW055 BKN075 15/09 A3016 RMK AO2 RAB30E46 SLP211 P0000 T01500089
Traffic Incident Summary
Active as of:
Severity:
Category:
InformationThere was an issue retrieving the traffic information for this location. Please try a different location or try again shortly.
Advertisements
Track Severe Weather on mobile